createdAt,value
2017-11-21T00:00:21.589Z,98522.06
2017-11-21T00:02:51.264Z,98522.87
2017-11-21T00:05:21.035Z,98523.71
2017-11-21T00:07:50.787Z,98521.49
2017-11-21T00:10:24.353Z,98515.86
2017-11-21T00:18:04.690Z,98496.67
2017-11-21T00:20:36.543Z,98499.59
2017-11-21T00:23:07.457Z,98502.19
2017-11-21T00:33:22.832Z,98483.39
2017-11-21T00:35:55.053Z,98483.88
2017-11-21T00:38:27.104Z,98488.28
2017-11-21T00:40:59.112Z,98487.31
2017-11-21T00:43:33.196Z,98481.16
2017-11-21T00:51:13.953Z,98473.26
2017-11-21T01:04:42.780Z,98463.58
2017-11-21T01:09:49.978Z,98457.97
2017-11-21T01:14:56.951Z,98454.41
2017-11-21T01:20:13.520Z,98443.08
2017-11-21T01:22:43.548Z,98447.29
2017-11-21T01:30:22.648Z,98435.91
2017-11-21T01:32:52.489Z,98431.53
2017-11-21T01:35:22.875Z,98435.25
2017-11-21T01:37:53.994Z,98428.89
2017-11-21T01:42:58.351Z,98415.65
2017-11-21T01:45:29.130Z,98418.39
2017-11-21T01:47:59.063Z,98422.89
2017-11-21T01:50:29.709Z,98434.52
2017-11-21T01:53:02.647Z,98429.29
2017-11-21T01:55:34.184Z,98424.72
2017-11-21T01:58:04.766Z,98423.73
2017-11-21T02:00:38.789Z,98413.84
2017-11-21T02:03:09.936Z,98417.09
2017-11-21T02:05:40.029Z,98410.59
2017-11-21T02:08:10.931Z,98403.13
2017-11-21T02:16:02.909Z,98396.70
2017-11-21T02:24:34.475Z,98415.40
2017-11-21T02:32:12.334Z,98418.98
2017-11-21T02:34:42.990Z,98425.44
2017-11-21T02:39:48.239Z,98410.72
2017-11-21T02:44:52.249Z,98407.84
2017-11-21T02:47:23.115Z,98404.05
2017-11-21T02:49:53.159Z,98399.45
2017-11-21T02:52:23.966Z,98394.45
2017-11-21T03:00:02.798Z,98398.91
2017-11-21T03:02:36.995Z,98406.09
2017-11-21T03:05:07.353Z,98408.84
2017-11-21T03:07:41.071Z,98404.53
2017-11-21T03:12:46.788Z,98402.19
2017-11-21T03:15:16.939Z,98403.02
2017-11-21T03:17:46.627Z,98400.45
2017-11-21T03:20:27.574Z,98403.19
2017-11-21T03:33:46.106Z,98377.45
2017-11-21T03:38:50.393Z,98382.27
2017-11-21T03:41:21.931Z,98380.53
2017-11-21T04:14:47.645Z,98393.97
2017-11-21T04:17:21.642Z,98384.06
2017-11-21T04:27:35.018Z,98388.96
2017-11-21T04:30:08.702Z,98393.55
2017-11-21T04:32:39.571Z,98390.30
2017-11-21T04:40:20.978Z,98389.27
2017-11-21T04:42:50.998Z,98398.16
2017-11-21T04:50:29.161Z,98386.41
2017-11-21T04:52:59.063Z,98390.20
2017-11-21T04:58:04.232Z,98381.70
2017-11-21T05:00:35.512Z,98380.59
2017-11-21T05:08:16.569Z,98384.98
2017-11-21T05:26:14.685Z,98381.20
2017-11-21T05:28:48.417Z,98387.84
2017-11-21T05:36:37.858Z,98384.47
2017-11-21T05:39:08.461Z,98380.47
2017-11-21T05:41:38.459Z,98380.97
2017-11-21T05:44:08.241Z,98388.44
2017-11-21T05:46:37.800Z,98391.72
2017-11-21T05:49:07.847Z,98389.34
2017-11-21T05:51:37.604Z,98395.48
2017-11-21T05:54:07.668Z,98397.12
2017-11-21T05:56:37.450Z,98407.16
2017-11-21T05:59:07.235Z,98408.37
2017-11-21T06:01:36.968Z,98405.50
2017-11-21T06:04:15.026Z,98407.02
2017-11-21T06:06:45.610Z,98406.30
2017-11-21T06:09:15.414Z,98406.80
2017-11-21T06:11:45.324Z,98409.27
2017-11-21T06:14:15.316Z,98415.59
2017-11-21T06:16:45.078Z,98424.89
2017-11-21T06:19:14.852Z,98421.30
2017-11-21T06:21:44.636Z,98424.89
2017-11-21T06:24:14.399Z,98424.79
2017-11-21T06:26:44.361Z,98431.84
2017-11-21T06:29:14.213Z,98430.08
2017-11-21T06:31:44.710Z,98430.14
2017-11-21T06:34:15.552Z,98425.23
2017-11-21T06:36:45.821Z,98432.48
2017-11-21T06:39:15.624Z,98428.17
2017-11-21T06:41:45.963Z,98436.85
2017-11-21T06:44:15.786Z,98428.48
2017-11-21T06:46:45.536Z,98427.00
2017-11-21T06:49:15.320Z,98433.66
2017-11-21T06:51:45.174Z,98437.17
2017-11-21T06:54:18.377Z,98441.56
2017-11-21T06:56:48.205Z,98438.87
2017-11-21T06:59:18.138Z,98442.22
2017-11-21T07:01:47.901Z,98444.09
2017-11-21T07:04:18.457Z,98449.08
2017-11-21T07:06:48.430Z,98443.27
2017-11-21T07:09:17.757Z,98449.87
2017-11-21T07:11:47.299Z,98447.45
2017-11-21T07:14:16.909Z,98449.78
2017-11-21T07:16:50.506Z,98457.94
2017-11-21T07:19:20.362Z,98455.81
2017-11-21T07:21:50.241Z,98460.92
2017-11-21T07:24:19.695Z,98455.34
2017-11-21T07:26:49.478Z,98457.50
2017-11-21T07:29:19.305Z,98465.92
2017-11-21T07:31:49.248Z,98464.28
2017-11-21T07:34:18.874Z,98460.79
2017-11-21T07:36:48.720Z,98462.39
2017-11-21T07:39:18.573Z,98460.78
2017-11-21T07:41:48.446Z,98455.91
2017-11-21T07:44:18.219Z,98456.22
2017-11-21T07:46:48.054Z,98451.89
2017-11-21T07:49:18.153Z,98455.95
2017-11-21T07:51:47.990Z,98458.14
2017-11-21T07:54:17.784Z,98446.59
2017-11-21T07:56:47.723Z,98443.41
2017-11-21T07:59:17.630Z,98440.67
2017-11-21T08:01:47.396Z,98443.12
2017-11-21T08:04:17.266Z,98445.23
2017-11-21T08:06:47.248Z,98446.63
2017-11-21T08:09:17.150Z,98452.02
2017-11-21T08:11:46.751Z,98458.98
2017-11-21T08:14:16.767Z,98462.16
2017-11-21T08:16:47.348Z,98456.97
2017-11-21T08:19:19.250Z,98460.09
2017-11-21T08:21:49.340Z,98463.91
2017-11-21T08:24:19.142Z,98455.80
2017-11-21T08:26:49.101Z,98454.55
2017-11-21T08:29:20.566Z,98464.32
2017-11-21T08:31:52.654Z,98466.33
2017-11-21T08:34:25.468Z,98467.83
2017-11-21T08:36:58.038Z,98469.72
2017-11-21T08:39:30.907Z,98478.58
2017-11-21T08:42:01.959Z,98481.93
2017-11-21T08:44:34.029Z,98476.78
2017-11-21T08:47:05.941Z,98494.17
2017-11-21T08:49:36.337Z,98494.80
2017-11-21T08:52:06.146Z,98502.31
2017-11-21T08:54:36.103Z,98495.99
2017-11-21T08:57:05.962Z,98498.09
2017-11-21T08:59:35.722Z,98494.13
2017-11-21T09:02:05.515Z,98494.30
2017-11-21T09:04:35.771Z,98493.26
2017-11-21T09:07:05.485Z,98495.62
2017-11-21T09:09:35.292Z,98498.15
2017-11-21T09:12:05.094Z,98497.61
2017-11-21T09:14:34.780Z,98504.97
2017-11-21T09:17:04.572Z,98499.02
2017-11-21T09:19:34.364Z,98502.21
2017-11-21T09:22:04.118Z,98498.09
2017-11-21T09:24:33.889Z,98501.93
2017-11-21T09:27:03.969Z,98501.02
2017-11-21T09:29:34.034Z,98499.00
2017-11-21T09:32:04.924Z,98499.06
2017-11-21T09:34:34.656Z,98500.13
2017-11-21T09:37:04.380Z,98495.22
2017-11-21T09:39:34.307Z,98494.87
2017-11-21T09:42:04.029Z,98498.05
2017-11-21T09:44:33.977Z,98488.92
2017-11-21T09:47:03.902Z,98487.11
2017-11-21T09:49:33.716Z,98498.16
2017-11-21T09:52:03.729Z,98501.73
2017-11-21T09:54:33.469Z,98487.48
2017-11-21T09:57:03.302Z,98488.40
2017-11-21T09:59:33.023Z,98490.97
2017-11-21T10:02:02.773Z,98492.59
2017-11-21T10:04:32.399Z,98487.19
2017-11-21T10:07:02.861Z,98482.91
2017-11-21T10:09:32.791Z,98481.94
2017-11-21T10:12:02.545Z,98480.56
2017-11-21T10:14:32.351Z,98481.23
2017-11-21T10:17:02.086Z,98465.88
2017-11-21T10:19:32.826Z,98476.95
2017-11-21T10:22:02.580Z,98471.84
2017-11-21T10:24:32.379Z,98473.70
2017-11-21T10:27:02.283Z,98466.02
2017-11-21T10:29:32.122Z,98464.38
2017-11-21T10:32:01.938Z,98456.63
2017-11-21T10:34:31.658Z,98457.48
2017-11-21T10:37:01.520Z,98457.48
2017-11-21T10:39:31.293Z,98454.51
2017-11-21T10:42:01.021Z,98449.73
2017-11-21T10:44:30.901Z,98446.16
2017-11-21T10:47:00.793Z,98446.23
2017-11-21T10:49:30.576Z,98445.11
2017-11-21T10:52:00.600Z,98444.28
2017-11-21T10:54:30.694Z,98442.79
2017-11-21T10:57:00.770Z,98455.98
2017-11-21T10:59:30.264Z,98451.02
2017-11-21T11:02:01.000Z,98445.41
2017-11-21T11:04:31.300Z,98444.63
2017-11-21T11:07:00.870Z,98444.14
2017-11-21T11:09:30.319Z,98454.50
2017-11-21T11:12:00.069Z,98449.34
2017-11-21T11:14:29.801Z,98450.39
2017-11-21T11:16:59.235Z,98451.50
2017-11-21T11:19:29.039Z,98451.95
2017-11-21T11:21:58.827Z,98446.77
2017-11-21T11:24:28.628Z,98440.99
2017-11-21T11:26:58.242Z,98441.67
2017-11-21T11:29:28.657Z,98431.23
2017-11-21T11:31:58.495Z,98430.56
2017-11-21T11:34:28.008Z,98421.40
2017-11-21T11:36:57.865Z,98437.76
2017-11-21T11:39:27.138Z,98430.02
2017-11-21T11:41:57.045Z,98427.66
2017-11-21T11:44:26.812Z,98430.27
2017-11-21T11:46:56.628Z,98431.69
2017-11-21T11:49:26.441Z,98428.78
2017-11-21T11:51:56.327Z,98429.48
2017-11-21T11:54:25.799Z,98437.42
2017-11-21T11:56:55.189Z,98431.20
2017-11-21T11:59:24.644Z,98429.86
2017-11-21T12:01:54.079Z,98430.12
2017-11-21T12:04:23.182Z,98433.21
2017-11-21T12:06:52.828Z,98432.88
2017-11-21T12:09:22.238Z,98435.40
2017-11-21T12:11:51.774Z,98430.29
2017-11-21T12:14:21.252Z,98432.83
2017-11-21T12:16:50.636Z,98433.09
2017-11-21T12:19:20.100Z,98424.97
2017-11-21T12:21:49.595Z,98421.53
2017-11-21T12:24:19.082Z,98420.42
2017-11-21T12:26:48.592Z,98414.42
2017-11-21T12:29:17.807Z,98407.94
2017-11-21T12:31:47.254Z,98413.23
2017-11-21T12:34:16.688Z,98422.17
2017-11-21T12:36:46.019Z,98421.84
2017-11-21T12:39:15.323Z,98418.98
2017-11-21T12:41:44.910Z,98420.09
2017-11-21T12:44:14.501Z,98426.42
2017-11-21T12:46:43.967Z,98426.27
2017-11-21T12:49:13.257Z,98432.48
2017-11-21T12:51:43.077Z,98433.60
2017-11-21T12:54:12.658Z,98423.95
2017-11-21T12:56:41.875Z,98424.46
2017-11-21T12:59:11.291Z,98416.91
2017-11-21T13:01:40.729Z,98421.89
2017-11-21T13:04:10.265Z,98416.42
2017-11-21T13:06:39.555Z,98413.55
2017-11-21T13:09:09.113Z,98411.99
2017-11-21T13:11:38.424Z,98415.91
2017-11-21T13:14:07.882Z,98412.56
2017-11-21T13:16:37.405Z,98411.06
2017-11-21T13:19:06.810Z,98410.77
2017-11-21T13:21:36.253Z,98409.70
2017-11-21T13:24:05.958Z,98418.50
2017-11-21T13:26:35.402Z,98405.02
2017-11-21T13:29:04.971Z,98411.23
2017-11-21T13:31:34.513Z,98416.88
2017-11-21T13:34:03.786Z,98421.55
2017-11-21T13:36:33.218Z,98421.38
2017-11-21T13:39:02.679Z,98419.56
2017-11-21T13:41:32.012Z,98417.28
2017-11-21T13:44:01.267Z,98418.11
2017-11-21T13:46:30.726Z,98416.53
2017-11-21T13:49:00.234Z,98411.50
2017-11-21T13:51:29.722Z,98411.69
2017-11-21T13:53:59.146Z,98410.65
2017-11-21T13:56:28.689Z,98411.33
2017-11-21T13:58:58.145Z,98412.56
2017-11-21T14:01:27.596Z,98408.83
2017-11-21T14:03:57.463Z,98415.49
2017-11-21T14:06:26.822Z,98411.84
2017-11-21T14:08:56.099Z,98414.32
2017-11-21T14:11:25.726Z,98419.14
2017-11-21T14:13:55.199Z,98410.58
2017-11-21T14:16:24.753Z,98413.50
2017-11-21T14:18:54.298Z,98410.50
2017-11-21T14:21:23.583Z,98413.05
2017-11-21T14:23:52.983Z,98415.59
2017-11-21T14:26:22.273Z,98412.65
2017-11-21T14:28:51.705Z,98408.73
2017-11-21T14:31:21.155Z,98407.92
2017-11-21T14:33:50.590Z,98413.13
2017-11-21T14:36:20.617Z,98407.87
2017-11-21T14:38:50.376Z,98415.28
2017-11-21T14:41:20.104Z,98408.75
2017-11-21T14:43:49.611Z,98407.13
2017-11-21T14:46:19.331Z,98400.64
2017-11-21T14:48:48.885Z,98409.92
2017-11-21T14:51:18.177Z,98402.01
2017-11-21T14:53:47.990Z,98408.80
2017-11-21T14:56:17.891Z,98407.60
2017-11-21T14:58:47.307Z,98408.63
2017-11-21T15:01:16.886Z,98403.53
2017-11-21T15:03:46.761Z,98402.59
2017-11-21T15:06:16.249Z,98403.75
2017-11-21T15:08:45.993Z,98405.25
2017-11-21T15:11:15.478Z,98406.36
2017-11-21T15:13:45.309Z,98405.20
2017-11-21T15:16:15.154Z,98404.10
2017-11-21T15:18:44.707Z,98400.84
2017-11-21T15:21:17.396Z,98397.98
2017-11-21T15:23:47.159Z,98402.75
2017-11-21T15:26:16.454Z,98399.44
2017-11-21T15:28:47.213Z,98396.89
2017-11-21T15:31:16.669Z,98408.63
2017-11-21T15:33:46.746Z,98409.88
2017-11-21T15:36:16.516Z,98407.30
2017-11-21T15:38:46.888Z,98410.93
2017-11-21T15:41:16.626Z,98408.45
2017-11-21T15:43:46.462Z,98409.71
2017-11-21T15:46:16.299Z,98405.25
2017-11-21T15:48:46.106Z,98402.83
2017-11-21T15:51:15.977Z,98403.16
2017-11-21T15:53:45.726Z,98403.76
2017-11-21T15:56:15.505Z,98410.16
2017-11-21T15:58:45.233Z,98409.34
2017-11-21T16:01:15.009Z,98419.80
2017-11-21T16:03:44.770Z,98424.52
2017-11-21T16:06:14.598Z,98428.41
2017-11-21T16:08:44.407Z,98426.36
2017-11-21T16:11:14.195Z,98413.77
2017-11-21T16:13:44.359Z,98417.56
2017-11-21T16:16:14.130Z,98418.27
2017-11-21T16:18:43.586Z,98420.97
2017-11-21T16:21:13.795Z,98420.42
2017-11-21T16:23:44.341Z,98425.78
2017-11-21T16:26:14.059Z,98415.06
2017-11-21T16:28:43.804Z,98414.09
2017-11-21T16:31:13.581Z,98408.66
2017-11-21T16:33:43.387Z,98408.95
2017-11-21T16:36:13.809Z,98409.88
2017-11-21T16:38:47.525Z,98397.81
2017-11-21T16:41:17.270Z,98405.58
2017-11-21T16:43:47.074Z,98415.94
2017-11-21T16:46:17.153Z,98415.99
2017-11-21T16:48:46.964Z,98417.34
2017-11-21T16:51:16.755Z,98418.52
2017-11-21T16:53:46.500Z,98415.31
2017-11-21T16:56:16.213Z,98411.45
2017-11-21T16:58:45.974Z,98403.67
2017-11-21T17:01:15.471Z,98429.59
2017-11-21T17:03:45.277Z,98417.74
2017-11-21T17:06:15.295Z,98431.08
2017-11-21T17:08:45.095Z,98434.00
2017-11-21T17:11:14.824Z,98427.25
2017-11-21T17:13:44.697Z,98428.48
2017-11-21T17:16:14.649Z,98424.50
2017-11-21T17:18:44.521Z,98421.09
2017-11-21T17:21:14.358Z,98413.35
2017-11-21T17:23:44.226Z,98417.51
2017-11-21T17:26:14.277Z,98418.59
2017-11-21T17:28:44.021Z,98414.09
2017-11-21T17:31:13.740Z,98418.13
2017-11-21T17:33:43.745Z,98418.19
2017-11-21T17:36:13.647Z,98412.89
2017-11-21T17:38:43.478Z,98418.66
2017-11-21T17:41:13.272Z,98423.78
2017-11-21T17:43:43.274Z,98415.03
2017-11-21T17:46:13.002Z,98410.08
2017-11-21T17:48:42.807Z,98423.27
2017-11-21T17:51:12.269Z,98419.83
2017-11-21T17:53:42.058Z,98419.05
2017-11-21T17:56:11.525Z,98426.77
2017-11-21T17:58:41.150Z,98424.20
2017-11-21T18:01:10.880Z,98420.11
2017-11-21T18:03:41.583Z,98416.94
2017-11-21T18:06:11.325Z,98422.78
2017-11-21T18:08:40.902Z,98418.09
2017-11-21T18:11:10.626Z,98416.01
2017-11-21T18:13:40.495Z,98421.67
2017-11-21T18:16:10.312Z,98416.13
2017-11-21T18:18:40.157Z,98409.34
2017-11-21T18:21:09.996Z,98408.19
2017-11-21T18:23:41.113Z,98406.96
2017-11-21T18:26:18.699Z,98401.78
2017-11-21T18:28:49.655Z,98389.52
2017-11-21T18:31:19.553Z,98384.82
2017-11-21T18:33:49.694Z,98386.53
2017-11-21T18:36:19.510Z,98378.70
2017-11-21T18:38:50.698Z,98383.84
2017-11-21T18:41:20.546Z,98391.55
2017-11-21T18:43:51.505Z,98395.58
2017-11-21T18:46:22.079Z,98398.48
2017-11-21T18:48:52.621Z,98402.26
2017-11-21T18:51:22.483Z,98404.30
2017-11-21T18:53:52.382Z,98394.69
2017-11-21T18:56:22.269Z,98393.91
2017-11-21T18:58:52.073Z,98396.44
2017-11-21T19:01:21.887Z,98393.98
2017-11-21T19:03:51.831Z,98398.23
2017-11-21T19:06:21.706Z,98392.42
2017-11-21T19:08:51.497Z,98394.19
2017-11-21T19:11:21.330Z,98395.98
2017-11-21T19:13:51.171Z,98388.02
2017-11-21T19:16:21.035Z,98386.05
2017-11-21T19:18:50.858Z,98387.48
2017-11-21T19:21:20.637Z,98383.97
2017-11-21T19:23:51.110Z,98388.00
2017-11-21T19:26:20.935Z,98385.13
2017-11-21T19:28:51.591Z,98378.97
2017-11-21T19:31:21.605Z,98383.34
2017-11-21T19:33:51.405Z,98387.27
2017-11-21T19:36:21.403Z,98386.73
2017-11-21T19:38:52.076Z,98389.94
2017-11-21T19:41:21.874Z,98386.94
2017-11-21T19:43:51.654Z,98392.52
2017-11-21T19:46:25.686Z,98385.30
2017-11-21T19:48:55.433Z,98386.69
2017-11-21T19:51:25.491Z,98383.25
2017-11-21T19:53:55.208Z,98384.08
2017-11-21T19:56:25.116Z,98384.20
2017-11-21T19:58:54.884Z,98386.41
2017-11-21T20:01:24.748Z,98380.59
2017-11-21T20:03:55.065Z,98377.67
2017-11-21T20:06:25.084Z,98378.61
2017-11-21T20:08:54.949Z,98384.45
2017-11-21T20:11:24.725Z,98385.59
2017-11-21T20:13:54.455Z,98384.19
2017-11-21T20:16:24.172Z,98383.35
2017-11-21T20:18:58.188Z,98387.32
2017-11-21T20:21:30.855Z,98383.22
2017-11-21T20:24:00.678Z,98374.84
2017-11-21T20:26:30.581Z,98379.84
2017-11-21T20:29:00.456Z,98380.44
2017-11-21T20:31:30.229Z,98373.57
2017-11-21T20:34:00.018Z,98379.91
2017-11-21T20:36:29.774Z,98382.50
2017-11-21T20:38:59.559Z,98371.78
2017-11-21T20:41:29.563Z,98373.53
2017-11-21T20:43:59.350Z,98373.48
2017-11-21T20:46:29.091Z,98373.82
2017-11-21T20:48:58.807Z,98387.53
2017-11-21T20:51:28.707Z,98381.27
2017-11-21T20:53:58.565Z,98374.34
2017-11-21T20:56:28.543Z,98369.37
2017-11-21T20:58:58.496Z,98374.17
2017-11-21T21:01:28.104Z,98382.95
2017-11-21T21:04:02.177Z,98371.13
2017-11-21T21:06:32.143Z,98368.45
2017-11-21T21:09:02.122Z,98361.77
2017-11-21T21:11:31.678Z,98357.75
2017-11-21T21:14:01.447Z,98366.25
2017-11-21T21:16:31.253Z,98375.44
2017-11-21T21:19:00.996Z,98370.17
2017-11-21T21:21:30.765Z,98374.73
2017-11-21T21:24:00.514Z,98384.34
2017-11-21T21:26:29.958Z,98388.11
2017-11-21T21:28:59.549Z,98386.80
2017-11-21T21:31:29.340Z,98383.00
2017-11-21T21:33:58.770Z,98380.23
2017-11-21T21:36:28.587Z,98375.23
2017-11-21T21:38:58.537Z,98377.25
2017-11-21T21:41:28.400Z,98373.12
2017-11-21T21:43:58.132Z,98371.56
2017-11-21T21:46:27.542Z,98369.16
2017-11-21T21:48:57.238Z,98370.91
2017-11-21T21:51:26.972Z,98371.89
2017-11-21T21:53:56.865Z,98364.88
2017-11-21T21:56:26.651Z,98367.47
2017-11-21T21:58:56.381Z,98365.61
2017-11-21T22:01:26.114Z,98359.69
2017-11-21T22:03:55.898Z,98364.79
2017-11-21T22:06:25.616Z,98365.56
2017-11-21T22:08:55.328Z,98364.80
2017-11-21T22:11:25.569Z,98367.42
2017-11-21T22:13:55.287Z,98360.81
2017-11-21T22:16:25.445Z,98352.14
2017-11-21T22:18:55.225Z,98354.10
2017-11-21T22:21:24.968Z,98354.16
2017-11-21T22:23:54.680Z,98356.23
2017-11-21T22:26:24.470Z,98348.43
2017-11-21T22:28:54.265Z,98356.45
2017-11-21T22:31:24.018Z,98359.97
2017-11-21T22:33:53.733Z,98349.75
2017-11-21T22:36:23.475Z,98356.44
2017-11-21T22:38:53.196Z,98353.97
2017-11-21T22:41:23.132Z,98359.73
2017-11-21T22:43:52.895Z,98353.97
2017-11-21T22:46:22.621Z,98356.38
2017-11-21T22:48:52.351Z,98361.14
2017-11-21T22:51:22.577Z,98356.55
2017-11-21T22:53:52.158Z,98357.08
2017-11-21T22:56:21.877Z,98358.11
2017-11-21T22:58:51.608Z,98358.41
2017-11-21T23:01:21.463Z,98361.64
2017-11-21T23:03:51.058Z,98348.67
2017-11-21T23:06:20.821Z,98343.14
2017-11-21T23:08:50.378Z,98348.95
2017-11-21T23:11:20.233Z,98349.78
2017-11-21T23:13:50.539Z,98343.05
2017-11-21T23:16:20.939Z,98338.95
2017-11-21T23:18:51.325Z,98335.41
2017-11-21T23:21:21.261Z,98334.19
2017-11-21T23:23:50.823Z,98322.55
2017-11-21T23:26:21.527Z,98326.37
2017-11-21T23:28:50.956Z,98317.21
2017-11-21T23:31:20.829Z,98319.63
2017-11-21T23:33:54.415Z,98315.78
2017-11-21T23:36:24.264Z,98316.95
2017-11-21T23:38:54.001Z,98315.52
2017-11-21T23:41:23.799Z,98321.11
2017-11-21T23:43:53.601Z,98324.56
2017-11-21T23:46:23.342Z,98319.16
2017-11-21T23:48:53.108Z,98326.03
2017-11-21T23:51:22.873Z,98321.03
2017-11-21T23:53:52.636Z,98326.48
2017-11-21T23:56:22.450Z,98327.72
2017-11-21T23:58:52.195Z,98336.14
